sensor_id;sensor_type;location;lat;lon;timestamp;temperature;humidity
16263;DHT22;8239;48.594;8.598;2022-10-03T00:01:35;6.70;99.90
16263;DHT22;8239;48.594;8.598;2022-10-03T00:04:14;6.70;99.90
16263;DHT22;8239;48.594;8.598;2022-10-03T00:06:53;6.80;99.90
16263;DHT22;8239;48.594;8.598;2022-10-03T00:09:33;6.80;99.90
16263;DHT22;8239;48.594;8.598;2022-10-03T00:12:08;6.90;99.90
16263;DHT22;8239;48.594;8.598;2022-10-03T00:14:52;7.00;99.90
16263;DHT22;8239;48.594;8.598;2022-10-03T00:17:29;7.10;99.90
16263;DHT22;8239;48.594;8.598;2022-10-03T00:20:10;7.20;99.90
16263;DHT22;8239;48.594;8.598;2022-10-03T00:22:45;7.30;99.90
16263;DHT22;8239;48.594;8.598;2022-10-03T00:25:25;7.30;99.90
16263;DHT22;8239;48.594;8.598;2022-10-03T00:28:09;7.30;99.90
16263;DHT22;8239;48.594;8.598;2022-10-03T00:31:06;7.30;99.90
16263;DHT22;8239;48.594;8.598;2022-10-03T00:33:46;7.30;99.90
16263;DHT22;8239;48.594;8.598;2022-10-03T00:36:23;7.30;99.90
16263;DHT22;8239;48.594;8.598;2022-10-03T00:42:00;7.50;99.90
16263;DHT22;8239;48.594;8.598;2022-10-03T00:47:58;7.70;99.90
16263;DHT22;8239;48.594;8.598;2022-10-03T00:50:57;7.80;99.90
16263;DHT22;8239;48.594;8.598;2022-10-03T00:53:46;7.90;99.90
16263;DHT22;8239;48.594;8.598;2022-10-03T00:56:40;7.90;99.90
16263;DHT22;8239;48.594;8.598;2022-10-03T00:59:26;7.90;99.90
16263;DHT22;8239;48.594;8.598;2022-10-03T01:01:54;7.90;99.90
16263;DHT22;8239;48.594;8.598;2022-10-03T01:04:46;7.80;99.90
16263;DHT22;8239;48.594;8.598;2022-10-03T01:07:30;7.80;99.90
16263;DHT22;8239;48.594;8.598;2022-10-03T01:10:13;7.80;99.90
16263;DHT22;8239;48.594;8.598;2022-10-03T01:13:00;7.70;99.90
16263;DHT22;8239;48.594;8.598;2022-10-03T01:15:40;7.70;99.90
16263;DHT22;8239;48.594;8.598;2022-10-03T01:18:20;7.70;99.90
16263;DHT22;8239;48.594;8.598;2022-10-03T01:20:57;7.60;99.90
16263;DHT22;8239;48.594;8.598;2022-10-03T01:23:42;7.50;99.90
16263;DHT22;8239;48.594;8.598;2022-10-03T01:26:30;7.40;99.90
16263;DHT22;8239;48.594;8.598;2022-10-03T01:29:06;7.30;99.90
16263;DHT22;8239;48.594;8.598;2022-10-03T01:31:56;7.10;99.90
16263;DHT22;8239;48.594;8.598;2022-10-03T01:34:27;7.00;99.90
16263;DHT22;8239;48.594;8.598;2022-10-03T01:37:07;6.80;99.90
16263;DHT22;8239;48.594;8.598;2022-10-03T01:39:40;6.80;99.90
16263;DHT22;8239;48.594;8.598;2022-10-03T01:42:13;6.70;99.90
16263;DHT22;8239;48.594;8.598;2022-10-03T01:45:02;6.70;99.90
16263;DHT22;8239;48.594;8.598;2022-10-03T01:47:43;6.70;99.90
16263;DHT22;8239;48.594;8.598;2022-10-03T01:50:21;6.70;99.90
16263;DHT22;8239;48.594;8.598;2022-10-03T01:52:55;6.60;99.90
16263;DHT22;8239;48.594;8.598;2022-10-03T01:55:39;6.60;99.90
16263;DHT22;8239;48.594;8.598;2022-10-03T01:58:10;6.60;99.90
16263;DHT22;8239;48.594;8.598;2022-10-03T02:00:44;6.50;99.90
16263;DHT22;8239;48.594;8.598;2022-10-03T02:03:20;6.40;99.90
16263;DHT22;8239;48.594;8.598;2022-10-03T02:05:56;6.30;99.90
16263;DHT22;8239;48.594;8.598;2022-10-03T02:08:30;6.30;99.90
16263;DHT22;8239;48.594;8.598;2022-10-03T02:11:02;6.20;99.90
16263;DHT22;8239;48.594;8.598;2022-10-03T02:13:40;6.20;99.90
16263;DHT22;8239;48.594;8.598;2022-10-03T02:16:19;6.20;99.90
16263;DHT22;8239;48.594;8.598;2022-10-03T02:18:53;6.20;99.90
16263;DHT22;8239;48.594;8.598;2022-10-03T02:21:23;6.20;99.90
16263;DHT22;8239;48.594;8.598;2022-10-03T02:24:07;6.20;99.90
16263;DHT22;8239;48.594;8.598;2022-10-03T02:30:04;6.10;99.90
16263;DHT22;8239;48.594;8.598;2022-10-03T02:36:04;5.90;99.90
16263;DHT22;8239;48.594;8.598;2022-10-03T02:39:08;5.80;99.90
16263;DHT22;8239;48.594;8.598;2022-10-03T02:42:01;5.70;99.90
16263;DHT22;8239;48.594;8.598;2022-10-03T02:44:56;5.60;99.90
16263;DHT22;8239;48.594;8.598;2022-10-03T02:51:03;5.50;99.90
16263;DHT22;8239;48.594;8.598;2022-10-03T02:54:04;5.30;99.90
16263;DHT22;8239;48.594;8.598;2022-10-03T02:56:55;5.30;99.90
16263;DHT22;8239;48.594;8.598;2022-10-03T03:03:14;5.20;99.90
16263;DHT22;8239;48.594;8.598;2022-10-03T03:06:18;5.10;99.90
16263;DHT22;8239;48.594;8.598;2022-10-03T03:09:21;5.10;99.90
16263;DHT22;8239;48.594;8.598;2022-10-03T03:18:17;5.00;99.90
16263;DHT22;8239;48.594;8.598;2022-10-03T03:21:00;5.00;99.90
16263;DHT22;8239;48.594;8.598;2022-10-03T03:23:48;4.90;99.90
16263;DHT22;8239;48.594;8.598;2022-10-03T03:26:50;4.90;99.90
16263;DHT22;8239;48.594;8.598;2022-10-03T03:29:34;4.80;99.90
16263;DHT22;8239;48.594;8.598;2022-10-03T03:32:09;4.70;99.90
16263;DHT22;8239;48.594;8.598;2022-10-03T03:34:42;4.70;99.90
16263;DHT22;8239;48.594;8.598;2022-10-03T03:37:19;4.70;99.90
16263;DHT22;8239;48.594;8.598;2022-10-03T03:40:01;4.70;99.90
16263;DHT22;8239;48.594;8.598;2022-10-03T03:42:47;4.70;99.90
16263;DHT22;8239;48.594;8.598;2022-10-03T03:45:35;4.70;99.90
16263;DHT22;8239;48.594;8.598;2022-10-03T03:48:30;4.70;99.90
16263;DHT22;8239;48.594;8.598;2022-10-03T03:51:19;4.90;99.90
16263;DHT22;8239;48.594;8.598;2022-10-03T03:54:01;5.00;99.90
16263;DHT22;8239;48.594;8.598;2022-10-03T03:56:50;5.20;99.90
16263;DHT22;8239;48.594;8.598;2022-10-03T03:59:31;5.30;99.90
16263;DHT22;8239;48.594;8.598;2022-10-03T04:02:21;5.50;99.90
16263;DHT22;8239;48.594;8.598;2022-10-03T04:05:04;5.50;99.90
16263;DHT22;8239;48.594;8.598;2022-10-03T04:07:44;5.60;99.90
16263;DHT22;8239;48.594;8.598;2022-10-03T04:10:35;5.70;99.90
16263;DHT22;8239;48.594;8.598;2022-10-03T04:13:28;5.70;99.90
16263;DHT22;8239;48.594;8.598;2022-10-03T04:16:28;5.80;99.90
16263;DHT22;8239;48.594;8.598;2022-10-03T04:19:23;5.80;99.90
16263;DHT22;8239;48.594;8.598;2022-10-03T04:25:14;5.70;99.90
16263;DHT22;8239;48.594;8.598;2022-10-03T04:28:08;5.60;99.90
16263;DHT22;8239;48.594;8.598;2022-10-03T04:30:50;5.60;99.90
16263;DHT22;8239;48.594;8.598;2022-10-03T04:33:27;5.60;99.90
16263;DHT22;8239;48.594;8.598;2022-10-03T04:39:09;5.60;99.90
16263;DHT22;8239;48.594;8.598;2022-10-03T04:41:49;5.60;99.90
16263;DHT22;8239;48.594;8.598;2022-10-03T04:44:42;5.50;99.90
16263;DHT22;8239;48.594;8.598;2022-10-03T04:47:19;5.60;99.90
16263;DHT22;8239;48.594;8.598;2022-10-03T04:49:51;5.60;99.90
16263;DHT22;8239;48.594;8.598;2022-10-03T04:52:29;5.60;99.90
16263;DHT22;8239;48.594;8.598;2022-10-03T04:55:16;5.60;99.90
16263;DHT22;8239;48.594;8.598;2022-10-03T04:57:51;5.60;99.90
16263;DHT22;8239;48.594;8.598;2022-10-03T05:00:24;5.50;99.90
16263;DHT22;8239;48.594;8.598;2022-10-03T05:03:03;5.50;99.90
16263;DHT22;8239;48.594;8.598;2022-10-03T05:05:47;5.50;99.90
16263;DHT22;8239;48.594;8.598;2022-10-03T05:08:27;5.40;99.90
16263;DHT22;8239;48.594;8.598;2022-10-03T05:11:03;5.40;99.90
16263;DHT22;8239;48.594;8.598;2022-10-03T05:13:41;5.30;99.90
16263;DHT22;8239;48.594;8.598;2022-10-03T05:16:22;5.30;99.90
16263;DHT22;8239;48.594;8.598;2022-10-03T05:18:57;5.30;99.90
16263;DHT22;8239;48.594;8.598;2022-10-03T05:21:33;5.30;99.90
16263;DHT22;8239;48.594;8.598;2022-10-03T05:24:13;5.30;99.90
16263;DHT22;8239;48.594;8.598;2022-10-03T05:26:47;5.30;99.90
16263;DHT22;8239;48.594;8.598;2022-10-03T05:29:25;5.20;99.90
16263;DHT22;8239;48.594;8.598;2022-10-03T05:32:05;5.20;99.90
16263;DHT22;8239;48.594;8.598;2022-10-03T05:34:53;5.30;99.90
16263;DHT22;8239;48.594;8.598;2022-10-03T05:37:41;5.30;99.90
16263;DHT22;8239;48.594;8.598;2022-10-03T05:40:15;5.30;99.90
16263;DHT22;8239;48.594;8.598;2022-10-03T05:43:01;5.40;99.90
16263;DHT22;8239;48.594;8.598;2022-10-03T05:45:43;5.50;99.90
16263;DHT22;8239;48.594;8.598;2022-10-03T05:48:24;5.50;99.90
16263;DHT22;8239;48.594;8.598;2022-10-03T05:51:07;5.60;99.90
16263;DHT22;8239;48.594;8.598;2022-10-03T05:57:01;5.80;99.90
16263;DHT22;8239;48.594;8.598;2022-10-03T05:59:51;5.90;99.90
16263;DHT22;8239;48.594;8.598;2022-10-03T06:02:53;6.00;99.90
16263;DHT22;8239;48.594;8.598;2022-10-03T06:05:29;6.10;99.90
16263;DHT22;8239;48.594;8.598;2022-10-03T06:08:32;6.20;99.90
16263;DHT22;8239;48.594;8.598;2022-10-03T06:11:15;6.30;99.90
16263;DHT22;8239;48.594;8.598;2022-10-03T06:14:05;6.40;99.90
16263;DHT22;8239;48.594;8.598;2022-10-03T06:16:43;6.50;99.90
16263;DHT22;8239;48.594;8.598;2022-10-03T06:19:32;6.60;99.90
16263;DHT22;8239;48.594;8.598;2022-10-03T06:22:44;6.70;99.90
16263;DHT22;8239;48.594;8.598;2022-10-03T06:41:03;7.40;99.90
16263;DHT22;8239;48.594;8.598;2022-10-03T06:53:27;8.30;99.90
16263;DHT22;8239;48.594;8.598;2022-10-03T06:56:33;8.50;99.90
16263;DHT22;8239;48.594;8.598;2022-10-03T06:59:17;8.90;99.90
16263;DHT22;8239;48.594;8.598;2022-10-03T07:11:27;13.00;99.90
16263;DHT22;8239;48.594;8.598;2022-10-03T07:17:25;15.00;99.90
16263;DHT22;8239;48.594;8.598;2022-10-03T07:20:09;14.80;99.90
16263;DHT22;8239;48.594;8.598;2022-10-03T07:23:19;14.70;99.90
16263;DHT22;8239;48.594;8.598;2022-10-03T07:26:36;14.40;99.90
16263;DHT22;8239;48.594;8.598;2022-10-03T07:29:26;13.80;99.90
16263;DHT22;8239;48.594;8.598;2022-10-03T07:32:30;13.30;99.90
16263;DHT22;8239;48.594;8.598;2022-10-03T07:38:48;13.40;99.90
16263;DHT22;8239;48.594;8.598;2022-10-03T07:41:45;13.70;99.90
16263;DHT22;8239;48.594;8.598;2022-10-03T07:47:54;14.70;99.90
16263;DHT22;8239;48.594;8.598;2022-10-03T08:05:59;16.70;99.90
16263;DHT22;8239;48.594;8.598;2022-10-03T08:08:56;16.50;99.90
16263;DHT22;8239;48.594;8.598;2022-10-03T08:11:40;16.30;99.90
16263;DHT22;8239;48.594;8.598;2022-10-03T08:14:17;16.10;99.90
16263;DHT22;8239;48.594;8.598;2022-10-03T08:17:14;16.00;99.90
16263;DHT22;8239;48.594;8.598;2022-10-03T08:22:56;15.50;99.90
16263;DHT22;8239;48.594;8.598;2022-10-03T08:25:33;15.20;99.90
16263;DHT22;8239;48.594;8.598;2022-10-03T08:28:32;14.90;99.90
16263;DHT22;8239;48.594;8.598;2022-10-03T08:31:34;14.70;99.90
16263;DHT22;8239;48.594;8.598;2022-10-03T08:34:26;14.40;99.90
16263;DHT22;8239;48.594;8.598;2022-10-03T08:37:11;14.20;99.90
16263;DHT22;8239;48.594;8.598;2022-10-03T08:43:05;14.10;99.90
16263;DHT22;8239;48.594;8.598;2022-10-03T08:48:53;13.90;99.90
16263;DHT22;8239;48.594;8.598;2022-10-03T08:58:44;13.70;99.90
16263;DHT22;8239;48.594;8.598;2022-10-03T09:01:33;13.50;99.90
16263;DHT22;8239;48.594;8.598;2022-10-03T09:04:55;13.50;99.90
16263;DHT22;8239;48.594;8.598;2022-10-03T09:07:53;13.40;99.90
16263;DHT22;8239;48.594;8.598;2022-10-03T09:10:46;13.40;99.90
16263;DHT22;8239;48.594;8.598;2022-10-03T09:13:46;13.30;99.90
16263;DHT22;8239;48.594;8.598;2022-10-03T09:16:39;13.20;99.90
16263;DHT22;8239;48.594;8.598;2022-10-03T09:19:26;13.00;99.90
16263;DHT22;8239;48.594;8.598;2022-10-03T09:22:29;12.90;99.90
16263;DHT22;8239;48.594;8.598;2022-10-03T09:25:29;12.80;99.90
16263;DHT22;8239;48.594;8.598;2022-10-03T09:31:15;12.90;99.90
16263;DHT22;8239;48.594;8.598;2022-10-03T09:34:14;13.00;99.90
16263;DHT22;8239;48.594;8.598;2022-10-03T09:40:12;13.20;99.90
16263;DHT22;8239;48.594;8.598;2022-10-03T09:46:22;13.60;99.90
16263;DHT22;8239;48.594;8.598;2022-10-03T09:49:19;13.80;99.90
16263;DHT22;8239;48.594;8.598;2022-10-03T09:52:05;13.90;99.90
16263;DHT22;8239;48.594;8.598;2022-10-03T09:54:52;13.90;99.90
16263;DHT22;8239;48.594;8.598;2022-10-03T09:57:55;13.90;99.90
16263;DHT22;8239;48.594;8.598;2022-10-03T10:00:30;13.70;99.90
16263;DHT22;8239;48.594;8.598;2022-10-03T10:06:28;13.60;99.90
16263;DHT22;8239;48.594;8.598;2022-10-03T10:12:44;13.50;99.90
16263;DHT22;8239;48.594;8.598;2022-10-03T10:22:13;14.00;99.90
16263;DHT22;8239;48.594;8.598;2022-10-03T10:25:12;14.30;99.90
16263;DHT22;8239;48.594;8.598;2022-10-03T10:28:18;14.60;99.90
16263;DHT22;8239;48.594;8.598;2022-10-03T10:34:21;15.30;99.90
16263;DHT22;8239;48.594;8.598;2022-10-03T10:37:21;15.60;99.90
16263;DHT22;8239;48.594;8.598;2022-10-03T10:43:31;16.10;99.90
16263;DHT22;8239;48.594;8.598;2022-10-03T10:55:59;18.00;99.90
16263;DHT22;8239;48.594;8.598;2022-10-03T11:15:05;22.00;97.60
16263;DHT22;8239;48.594;8.598;2022-10-03T11:18:01;22.30;95.50
16263;DHT22;8239;48.594;8.598;2022-10-03T11:21:03;22.30;93.70
16263;DHT22;8239;48.594;8.598;2022-10-03T11:33:32;27.40;90.10
16263;DHT22;8239;48.594;8.598;2022-10-03T11:36:36;28.20;83.20
16263;DHT22;8239;48.594;8.598;2022-10-03T11:39:13;29.00;78.00
16263;DHT22;8239;48.594;8.598;2022-10-03T11:41:46;29.80;70.70
16263;DHT22;8239;48.594;8.598;2022-10-03T11:44:27;30.50;68.90
16263;DHT22;8239;48.594;8.598;2022-10-03T11:47:11;31.10;62.80
16263;DHT22;8239;48.594;8.598;2022-10-03T11:52:56;31.80;56.10
16263;DHT22;8239;48.594;8.598;2022-10-03T11:55:30;31.70;53.20
16263;DHT22;8239;48.594;8.598;2022-10-03T11:58:10;30.50;52.20
16263;DHT22;8239;48.594;8.598;2022-10-03T12:00:42;28.90;51.40
16263;DHT22;8239;48.594;8.598;2022-10-03T12:03:19;27.20;54.60
16263;DHT22;8239;48.594;8.598;2022-10-03T12:05:54;25.60;57.90
16263;DHT22;8239;48.594;8.598;2022-10-03T12:08:54;24.50;61.10
16263;DHT22;8239;48.594;8.598;2022-10-03T12:11:32;24.40;60.30
16263;DHT22;8239;48.594;8.598;2022-10-03T12:14:17;25.00;58.50
16263;DHT22;8239;48.594;8.598;2022-10-03T12:17:09;24.70;56.90
16263;DHT22;8239;48.594;8.598;2022-10-03T12:19:45;24.40;57.40
16263;DHT22;8239;48.594;8.598;2022-10-03T12:22:26;25.20;60.20
16263;DHT22;8239;48.594;8.598;2022-10-03T12:25:01;26.80;60.00
16263;DHT22;8239;48.594;8.598;2022-10-03T12:27:40;28.40;52.80
16263;DHT22;8239;48.594;8.598;2022-10-03T12:30:13;29.20;50.00
16263;DHT22;8239;48.594;8.598;2022-10-03T12:32:47;29.80;51.10
16263;DHT22;8239;48.594;8.598;2022-10-03T12:38:06;31.10;46.40
16263;DHT22;8239;48.594;8.598;2022-10-03T12:40:40;31.50;43.60
16263;DHT22;8239;48.594;8.598;2022-10-03T12:43:32;32.00;45.60
16263;DHT22;8239;48.594;8.598;2022-10-03T12:46:05;31.80;43.90
16263;DHT22;8239;48.594;8.598;2022-10-03T12:48:43;30.40;45.30
16263;DHT22;8239;48.594;8.598;2022-10-03T12:51:23;28.70;46.70
16263;DHT22;8239;48.594;8.598;2022-10-03T12:54:01;27.20;50.30
16263;DHT22;8239;48.594;8.598;2022-10-03T12:56:40;27.00;50.80
16263;DHT22;8239;48.594;8.598;2022-10-03T12:59:15;28.40;52.10
16263;DHT22;8239;48.594;8.598;2022-10-03T13:02:00;29.80;43.20
16263;DHT22;8239;48.594;8.598;2022-10-03T13:04:40;30.00;45.10
16263;DHT22;8239;48.594;8.598;2022-10-03T13:07:24;29.50;44.90
16263;DHT22;8239;48.594;8.598;2022-10-03T13:10:17;28.30;47.70
16263;DHT22;8239;48.594;8.598;2022-10-03T13:12:50;27.00;50.50
16263;DHT22;8239;48.594;8.598;2022-10-03T13:18:36;25.20;53.20
16263;DHT22;8239;48.594;8.598;2022-10-03T13:21:16;24.30;54.90
16263;DHT22;8239;48.594;8.598;2022-10-03T13:23:48;23.50;56.30
16263;DHT22;8239;48.594;8.598;2022-10-03T13:26:22;22.90;55.80
16263;DHT22;8239;48.594;8.598;2022-10-03T13:29:21;22.60;56.10
16263;DHT22;8239;48.594;8.598;2022-10-03T13:32:04;23.00;57.30
16263;DHT22;8239;48.594;8.598;2022-10-03T13:34:44;23.80;57.70
16263;DHT22;8239;48.594;8.598;2022-10-03T13:37:17;25.50;57.40
16263;DHT22;8239;48.594;8.598;2022-10-03T13:39:48;28.00;54.50
16263;DHT22;8239;48.594;8.598;2022-10-03T13:42:20;30.20;50.20
16263;DHT22;8239;48.594;8.598;2022-10-03T13:45:01;31.90;46.30
16263;DHT22;8239;48.594;8.598;2022-10-03T13:47:49;32.60;43.60
16263;DHT22;8239;48.594;8.598;2022-10-03T13:50:25;32.60;42.70
16263;DHT22;8239;48.594;8.598;2022-10-03T13:52:59;31.60;43.10
16263;DHT22;8239;48.594;8.598;2022-10-03T13:55:38;30.10;45.00
16263;DHT22;8239;48.594;8.598;2022-10-03T13:58:31;28.40;47.40
16263;DHT22;8239;48.594;8.598;2022-10-03T14:01:19;27.00;50.20
16263;DHT22;8239;48.594;8.598;2022-10-03T14:04:08;26.60;52.00
16263;DHT22;8239;48.594;8.598;2022-10-03T14:06:45;26.20;51.20
16263;DHT22;8239;48.594;8.598;2022-10-03T14:09:36;25.20;48.80
16263;DHT22;8239;48.594;8.598;2022-10-03T14:12:14;24.10;52.80
16263;DHT22;8239;48.594;8.598;2022-10-03T14:15:08;23.60;54.90
16263;DHT22;8239;48.594;8.598;2022-10-03T14:17:45;23.50;54.90
16263;DHT22;8239;48.594;8.598;2022-10-03T14:20:23;24.20;56.30
16263;DHT22;8239;48.594;8.598;2022-10-03T14:23:11;25.70;54.60
16263;DHT22;8239;48.594;8.598;2022-10-03T14:25:44;27.50;51.70
16263;DHT22;8239;48.594;8.598;2022-10-03T14:28:17;28.80;45.10
16263;DHT22;8239;48.594;8.598;2022-10-03T14:30:59;29.90;45.00
16263;DHT22;8239;48.594;8.598;2022-10-03T14:33:37;30.00;37.60
16263;DHT22;8239;48.594;8.598;2022-10-03T14:36:20;29.10;40.10
16263;DHT22;8239;48.594;8.598;2022-10-03T14:39:00;28.00;43.00
16263;DHT22;8239;48.594;8.598;2022-10-03T14:41:45;27.90;43.40
16263;DHT22;8239;48.594;8.598;2022-10-03T14:44:18;27.80;44.70
16263;DHT22;8239;48.594;8.598;2022-10-03T14:46:51;28.10;45.10
16263;DHT22;8239;48.594;8.598;2022-10-03T14:49:24;28.70;46.50
16263;DHT22;8239;48.594;8.598;2022-10-03T14:51:57;29.60;45.80
16263;DHT22;8239;48.594;8.598;2022-10-03T14:54:27;30.50;43.30
16263;DHT22;8239;48.594;8.598;2022-10-03T14:57:13;31.20;43.00
16263;DHT22;8239;48.594;8.598;2022-10-03T14:59:50;31.70;40.80
16263;DHT22;8239;48.594;8.598;2022-10-03T15:02:26;31.00;37.70
16263;DHT22;8239;48.594;8.598;2022-10-03T15:05:03;30.20;37.80
16263;DHT22;8239;48.594;8.598;2022-10-03T15:07:35;29.50;40.20
16263;DHT22;8239;48.594;8.598;2022-10-03T15:10:07;29.40;42.10
16263;DHT22;8239;48.594;8.598;2022-10-03T15:12:36;29.80;42.30
16263;DHT22;8239;48.594;8.598;2022-10-03T15:15:08;29.90;42.20
16263;DHT22;8239;48.594;8.598;2022-10-03T15:17:44;29.70;41.30
16263;DHT22;8239;48.594;8.598;2022-10-03T15:20:16;29.70;42.50
16263;DHT22;8239;48.594;8.598;2022-10-03T15:22:50;29.60;40.70
16263;DHT22;8239;48.594;8.598;2022-10-03T15:25:20;29.70;42.70
16263;DHT22;8239;48.594;8.598;2022-10-03T15:27:51;29.80;42.80
16263;DHT22;8239;48.594;8.598;2022-10-03T15:30:21;30.10;42.80
16263;DHT22;8239;48.594;8.598;2022-10-03T15:32:51;30.30;42.40
16263;DHT22;8239;48.594;8.598;2022-10-03T15:35:25;30.10;40.80
16263;DHT22;8239;48.594;8.598;2022-10-03T15:37:53;30.10;41.60
16263;DHT22;8239;48.594;8.598;2022-10-03T15:40:29;30.10;42.70
16263;DHT22;8239;48.594;8.598;2022-10-03T15:43:04;30.10;41.90
16263;DHT22;8239;48.594;8.598;2022-10-03T15:45:36;30.10;42.30
16263;DHT22;8239;48.594;8.598;2022-10-03T15:48:10;29.90;42.50
16263;DHT22;8239;48.594;8.598;2022-10-03T15:50:40;29.40;40.10
16263;DHT22;8239;48.594;8.598;2022-10-03T15:53:16;29.20;41.90
16263;DHT22;8239;48.594;8.598;2022-10-03T15:55:47;28.90;42.40
16263;DHT22;8239;48.594;8.598;2022-10-03T15:58:19;28.60;43.00
16263;DHT22;8239;48.594;8.598;2022-10-03T16:00:53;28.30;43.20
16263;DHT22;8239;48.594;8.598;2022-10-03T16:03:25;27.90;43.50
16263;DHT22;8239;48.594;8.598;2022-10-03T16:06:02;27.50;43.10
16263;DHT22;8239;48.594;8.598;2022-10-03T16:08:34;27.20;44.60
16263;DHT22;8239;48.594;8.598;2022-10-03T16:11:10;27.00;45.30
16263;DHT22;8239;48.594;8.598;2022-10-03T16:13:41;26.80;45.90
16263;DHT22;8239;48.594;8.598;2022-10-03T16:16:14;26.60;46.40
16263;DHT22;8239;48.594;8.598;2022-10-03T16:19:00;26.20;46.80
16263;DHT22;8239;48.594;8.598;2022-10-03T16:21:41;25.60;46.90
16263;DHT22;8239;48.594;8.598;2022-10-03T16:24:28;24.70;48.00
16263;DHT22;8239;48.594;8.598;2022-10-03T16:27:05;23.60;49.30
16263;DHT22;8239;48.594;8.598;2022-10-03T16:29:34;22.70;51.30
16263;DHT22;8239;48.594;8.598;2022-10-03T16:32:05;21.90;52.80
16263;DHT22;8239;48.594;8.598;2022-10-03T16:34:35;21.30;53.90
16263;DHT22;8239;48.594;8.598;2022-10-03T16:37:15;20.60;54.80
16263;DHT22;8239;48.594;8.598;2022-10-03T16:39:48;20.00;56.00
16263;DHT22;8239;48.594;8.598;2022-10-03T16:42:20;19.40;56.70
16263;DHT22;8239;48.594;8.598;2022-10-03T16:44:50;18.40;57.70
16263;DHT22;8239;48.594;8.598;2022-10-03T16:47:28;17.50;59.40
16263;DHT22;8239;48.594;8.598;2022-10-03T16:49:58;16.50;61.70
16263;DHT22;8239;48.594;8.598;2022-10-03T16:52:47;15.60;64.10
16263;DHT22;8239;48.594;8.598;2022-10-03T16:55:17;14.70;66.70
16263;DHT22;8239;48.594;8.598;2022-10-03T16:57:47;13.90;69.00
16263;DHT22;8239;48.594;8.598;2022-10-03T17:00:22;13.30;71.20
16263;DHT22;8239;48.594;8.598;2022-10-03T17:02:49;12.70;73.50
16263;DHT22;8239;48.594;8.598;2022-10-03T17:05:17;12.20;75.90
16263;DHT22;8239;48.594;8.598;2022-10-03T17:07:47;11.80;80.60
16263;DHT22;8239;48.594;8.598;2022-10-03T17:10:29;11.40;91.60
16263;DHT22;8239;48.594;8.598;2022-10-03T17:13:01;11.10;97.70
16263;DHT22;8239;48.594;8.598;2022-10-03T17:15:32;10.70;99.90
16263;DHT22;8239;48.594;8.598;2022-10-03T17:18:12;10.40;99.90
16263;DHT22;8239;48.594;8.598;2022-10-03T17:20:43;10.20;99.90
16263;DHT22;8239;48.594;8.598;2022-10-03T17:23:23;9.90;99.90
16263;DHT22;8239;48.594;8.598;2022-10-03T17:25:59;9.70;99.90
16263;DHT22;8239;48.594;8.598;2022-10-03T17:28:39;9.50;99.90
16263;DHT22;8239;48.594;8.598;2022-10-03T17:31:26;9.30;99.90
16263;DHT22;8239;48.594;8.598;2022-10-03T17:34:01;9.10;99.90
16263;DHT22;8239;48.594;8.598;2022-10-03T17:39:37;8.90;99.90
16263;DHT22;8239;48.594;8.598;2022-10-03T17:45:09;8.60;99.90
16263;DHT22;8239;48.594;8.598;2022-10-03T17:47:49;8.50;99.90
16263;DHT22;8239;48.594;8.598;2022-10-03T17:50:24;8.40;99.90
16263;DHT22;8239;48.594;8.598;2022-10-03T17:52:55;8.30;99.90
16263;DHT22;8239;48.594;8.598;2022-10-03T17:55:28;8.20;99.90
16263;DHT22;8239;48.594;8.598;2022-10-03T17:57:58;8.20;99.90
16263;DHT22;8239;48.594;8.598;2022-10-03T18:00:28;8.10;99.90
16263;DHT22;8239;48.594;8.598;2022-10-03T18:03:00;8.00;99.90
16263;DHT22;8239;48.594;8.598;2022-10-03T18:05:34;7.90;99.90
16263;DHT22;8239;48.594;8.598;2022-10-03T18:08:05;7.90;99.90
16263;DHT22;8239;48.594;8.598;2022-10-03T18:10:37;7.80;99.90
16263;DHT22;8239;48.594;8.598;2022-10-03T18:13:15;7.70;99.90
16263;DHT22;8239;48.594;8.598;2022-10-03T18:16:17;7.60;99.90
16263;DHT22;8239;48.594;8.598;2022-10-03T18:19:18;7.50;99.90
16263;DHT22;8239;48.594;8.598;2022-10-03T18:22:01;7.40;99.90
16263;DHT22;8239;48.594;8.598;2022-10-03T18:24:54;7.30;99.90
16263;DHT22;8239;48.594;8.598;2022-10-03T18:28:08;7.20;99.90
16263;DHT22;8239;48.594;8.598;2022-10-03T18:30:43;7.10;99.90
16263;DHT22;8239;48.594;8.598;2022-10-03T18:33:14;7.00;99.90
16263;DHT22;8239;48.594;8.598;2022-10-03T18:38:12;6.90;99.90
16263;DHT22;8239;48.594;8.598;2022-10-03T18:40:47;6.90;99.90
16263;DHT22;8239;48.594;8.598;2022-10-03T18:43:28;6.90;99.90
16263;DHT22;8239;48.594;8.598;2022-10-03T18:48:56;6.80;99.90
16263;DHT22;8239;48.594;8.598;2022-10-03T18:51:31;6.70;99.90
16263;DHT22;8239;48.594;8.598;2022-10-03T18:54:03;6.70;99.90
16263;DHT22;8239;48.594;8.598;2022-10-03T18:56:32;6.70;99.90
16263;DHT22;8239;48.594;8.598;2022-10-03T18:59:14;6.60;99.90
16263;DHT22;8239;48.594;8.598;2022-10-03T19:01:50;6.60;99.90
16263;DHT22;8239;48.594;8.598;2022-10-03T19:04:31;6.50;99.90
16263;DHT22;8239;48.594;8.598;2022-10-03T19:07:00;6.50;99.90
16263;DHT22;8239;48.594;8.598;2022-10-03T19:09:33;6.40;99.90
16263;DHT22;8239;48.594;8.598;2022-10-03T19:12:08;6.40;99.90
16263;DHT22;8239;48.594;8.598;2022-10-03T19:14:48;6.30;99.90
16263;DHT22;8239;48.594;8.598;2022-10-03T19:17:25;6.30;99.90
16263;DHT22;8239;48.594;8.598;2022-10-03T19:19:59;6.30;99.90
16263;DHT22;8239;48.594;8.598;2022-10-03T19:22:29;6.20;99.90
16263;DHT22;8239;48.594;8.598;2022-10-03T19:25:00;6.20;99.90
16263;DHT22;8239;48.594;8.598;2022-10-03T19:27:47;6.20;99.90
16263;DHT22;8239;48.594;8.598;2022-10-03T19:30:19;6.10;99.90
16263;DHT22;8239;48.594;8.598;2022-10-03T19:32:52;6.10;99.90
16263;DHT22;8239;48.594;8.598;2022-10-03T19:35:22;6.00;99.90
16263;DHT22;8239;48.594;8.598;2022-10-03T19:37:52;6.00;99.90
16263;DHT22;8239;48.594;8.598;2022-10-03T19:40:36;6.00;99.90
16263;DHT22;8239;48.594;8.598;2022-10-03T19:43:30;6.00;99.90
16263;DHT22;8239;48.594;8.598;2022-10-03T19:46:09;5.90;99.90
16263;DHT22;8239;48.594;8.598;2022-10-03T19:48:43;5.90;99.90
16263;DHT22;8239;48.594;8.598;2022-10-03T19:51:14;5.90;99.90
16263;DHT22;8239;48.594;8.598;2022-10-03T19:53:43;5.80;99.90
16263;DHT22;8239;48.594;8.598;2022-10-03T19:56:13;5.80;99.90
16263;DHT22;8239;48.594;8.598;2022-10-03T19:58:43;5.70;99.90
16263;DHT22;8239;48.594;8.598;2022-10-03T20:01:13;5.60;99.90
16263;DHT22;8239;48.594;8.598;2022-10-03T20:03:46;5.60;99.90
16263;DHT22;8239;48.594;8.598;2022-10-03T20:06:18;5.50;99.90
16263;DHT22;8239;48.594;8.598;2022-10-03T20:08:52;5.50;99.90
16263;DHT22;8239;48.594;8.598;2022-10-03T20:11:34;5.50;99.90
16263;DHT22;8239;48.594;8.598;2022-10-03T20:14:05;5.40;99.90
16263;DHT22;8239;48.594;8.598;2022-10-03T20:16:45;5.40;99.90
16263;DHT22;8239;48.594;8.598;2022-10-03T20:19:15;5.40;99.90
16263;DHT22;8239;48.594;8.598;2022-10-03T20:21:50;5.30;99.90
16263;DHT22;8239;48.594;8.598;2022-10-03T20:24:21;5.20;99.90
16263;DHT22;8239;48.594;8.598;2022-10-03T20:27:00;5.20;99.90
16263;DHT22;8239;48.594;8.598;2022-10-03T20:29:36;5.20;99.90
16263;DHT22;8239;48.594;8.598;2022-10-03T20:32:12;5.20;99.90
16263;DHT22;8239;48.594;8.598;2022-10-03T20:34:44;5.10;99.90
16263;DHT22;8239;48.594;8.598;2022-10-03T20:37:30;5.10;99.90
16263;DHT22;8239;48.594;8.598;2022-10-03T20:40:13;5.10;99.90
16263;DHT22;8239;48.594;8.598;2022-10-03T20:42:42;5.10;99.90